createdAt,value
2023-03-19T00:00:36.308Z,100897.03
2023-03-19T00:07:18.804Z,100897.88
2023-03-19T00:14:01.165Z,100901.38
2023-03-19T00:20:43.817Z,100906.63
2023-03-19T00:27:26.289Z,100896.16
2023-03-19T00:34:09.907Z,100893.53
2023-03-19T00:40:52.213Z,100892.66
2023-03-19T00:47:34.568Z,100888.28
2023-03-19T00:54:16.965Z,100894.41
2023-03-19T01:00:59.270Z,100894.34
2023-03-19T01:07:41.424Z,100893.50
2023-03-19T01:14:24.742Z,100902.22
2023-03-19T01:21:08.332Z,100903.97
2023-03-19T01:27:56.783Z,100908.31
2023-03-19T01:34:39.274Z,100908.31
2023-03-19T01:41:24.880Z,100914.44
2023-03-19T01:48:45.175Z,100918.78
2023-03-19T01:55:31.417Z,100916.16
2023-03-19T02:02:36.878Z,100915.25
2023-03-19T02:09:30.593Z,100912.63
2023-03-19T02:16:13.018Z,100909.16
2023-03-19T02:23:24.963Z,100909.97
2023-03-19T02:30:27.359Z,100911.75
2023-03-19T02:37:21.231Z,100901.28
2023-03-19T02:44:04.786Z,100907.34
2023-03-19T02:50:47.067Z,100921.28
2023-03-19T02:57:29.544Z,100916.91
2023-03-19T03:04:12.122Z,100918.66
2023-03-19T03:10:54.333Z,100921.25
2023-03-19T03:17:41.907Z,100921.22
2023-03-19T03:24:24.422Z,100923.84
2023-03-19T03:31:07.927Z,100925.53
2023-03-19T03:37:51.580Z,100923.78
2023-03-19T03:44:33.805Z,100922.88
2023-03-19T03:51:16.176Z,100923.72
2023-03-19T03:57:59.043Z,100921.97
2023-03-19T04:04:41.614Z,100914.13
2023-03-19T04:11:23.799Z,100923.66
2023-03-19T04:18:06.905Z,100928.00
2023-03-19T04:24:49.458Z,100916.66
2023-03-19T04:31:32.065Z,100916.63
2023-03-19T04:38:14.458Z,100920.09
2023-03-19T04:44:56.713Z,100930.53
2023-03-19T04:51:39.533Z,100927.91
2023-03-19T04:58:23.368Z,100927.03
2023-03-19T05:05:13.641Z,100926.16
2023-03-19T05:11:57.216Z,100929.63
2023-03-19T05:18:41.447Z,100932.25
2023-03-19T05:25:24.166Z,100928.75
2023-03-19T05:32:07.973Z,100935.75
2023-03-19T05:38:50.337Z,100929.72
2023-03-19T05:45:40.404Z,100951.53
2023-03-19T05:52:33.676Z,100945.47
2023-03-19T05:59:16.197Z,100949.88
2023-03-19T06:06:05.793Z,100956.03
2023-03-19T06:12:53.221Z,100942.22
2023-03-19T06:19:50.992Z,100936.19
2023-03-19T06:26:33.643Z,100947.59
2023-03-19T06:33:19.583Z,100951.09
2023-03-19T06:40:02.364Z,100968.53
2023-03-19T06:46:44.668Z,100972.94
2023-03-19T06:53:27.979Z,100973.88
2023-03-19T07:00:11.651Z,100980.81
2023-03-19T07:06:54.076Z,100978.19
2023-03-19T07:13:38.047Z,100993.03
2023-03-19T07:20:20.464Z,100985.16
2023-03-19T07:27:03.210Z,100986.88
2023-03-19T07:33:45.746Z,100996.41
2023-03-19T07:40:28.310Z,100995.50
2023-03-19T07:47:19.091Z,101000.66
2023-03-19T07:54:08.473Z,100990.06
2023-03-19T08:00:50.906Z,100990.78
2023-03-19T08:07:33.123Z,100990.63
2023-03-19T08:14:19.254Z,100995.66
2023-03-19T08:21:01.428Z,100991.91
2023-03-19T08:27:43.750Z,100991.63
2023-03-19T08:34:27.122Z,100986.09
2023-03-19T08:41:10.015Z,100973.41
2023-03-19T08:47:52.344Z,100983.53
2023-03-19T08:54:34.880Z,100979.53
2023-03-19T09:01:17.628Z,100979.81
2023-03-19T09:07:59.821Z,100976.66
2023-03-19T09:14:43.254Z,100976.19
2023-03-19T09:21:25.615Z,100962.28
2023-03-19T09:28:08.059Z,100973.81
2023-03-19T09:34:50.430Z,100967.72
2023-03-19T09:41:43.278Z,100967.66
2023-03-19T09:48:43.701Z,100968.41
2023-03-19T09:55:48.782Z,100966.34
2023-03-19T10:02:41.919Z,100966.19
2023-03-19T10:09:48.362Z,100967.09
2023-03-19T10:16:31.168Z,100968.03
2023-03-19T10:23:54.508Z,100958.31
2023-03-19T10:30:37.463Z,100961.16
2023-03-19T10:37:30.290Z,100956.25
2023-03-19T10:44:34.588Z,100947.63
2023-03-19T10:51:27.044Z,100945.13
2023-03-19T10:58:27.244Z,100938.09
2023-03-19T11:05:32.243Z,100945.19
2023-03-19T11:12:37.740Z,100942.91
2023-03-19T11:19:29.939Z,100935.19
2023-03-19T11:26:20.054Z,100948.09
2023-03-19T11:33:42.690Z,100940.47
2023-03-19T11:41:25.232Z,100931.84
2023-03-19T11:48:34.748Z,100923.03
2023-03-19T11:55:39.316Z,100934.66
2023-03-19T12:03:16.726Z,100908.16
2023-03-19T12:10:21.193Z,100901.28
2023-03-19T12:17:34.418Z,100902.41
2023-03-19T12:24:48.098Z,100900.50
2023-03-19T12:32:07.548Z,100888.06
2023-03-19T12:39:02.849Z,100883.34
2023-03-19T12:45:50.893Z,100882.81
2023-03-19T12:52:51.662Z,100876.53
2023-03-19T13:00:23.600Z,100876.25
2023-03-19T13:07:24.173Z,100875.56
2023-03-19T13:14:15.497Z,100861.81
2023-03-19T13:21:23.439Z,100852.84
2023-03-19T13:28:20.156Z,100850.38
2023-03-19T13:35:45.720Z,100850.56
2023-03-19T13:42:42.646Z,100849.88
2023-03-19T13:49:35.913Z,100850.91
2023-03-19T13:56:29.699Z,100841.56
2023-03-19T14:03:33.140Z,100835.03
2023-03-19T14:10:31.326Z,100834.06
2023-03-19T14:17:26.657Z,100844.81
2023-03-19T14:24:55.729Z,100844.38
2023-03-19T14:31:45.927Z,100849.44
2023-03-19T14:38:45.765Z,100847.13
2023-03-19T14:45:39.989Z,100839.50
2023-03-19T14:52:45.253Z,100840.59
2023-03-19T14:59:36.450Z,100839.06
2023-03-19T15:06:18.648Z,100839.84
2023-03-19T15:13:27.325Z,100836.28
2023-03-19T15:20:20.678Z,100840.41
2023-03-19T15:27:02.965Z,100829.00
2023-03-19T15:33:46.516Z,100831.56
2023-03-19T15:40:31.395Z,100840.31
2023-03-19T15:47:24.472Z,100826.91
2023-03-19T15:54:08.861Z,100831.31
2023-03-19T16:00:54.252Z,100839.16
2023-03-19T16:07:43.485Z,100840.03
2023-03-19T16:14:43.598Z,100844.28
2023-03-19T16:21:40.258Z,100849.47
2023-03-19T16:28:25.853Z,100844.13
2023-03-19T16:35:15.098Z,100862.66
2023-03-19T16:42:33.129Z,100857.25
2023-03-19T16:49:15.371Z,100863.28
2023-03-19T16:55:59.171Z,100862.34
2023-03-19T17:02:41.536Z,100862.19
2023-03-19T17:09:24.065Z,100863.84
2023-03-19T17:16:07.699Z,100871.69
2023-03-19T17:22:49.933Z,100866.13
2023-03-19T17:29:33.771Z,100874.69
2023-03-19T17:36:16.185Z,100882.34
2023-03-19T17:42:58.435Z,100875.84
2023-03-19T17:49:41.925Z,100880.78
2023-03-19T17:56:25.881Z,100877.75
2023-03-19T18:03:15.380Z,100880.81
2023-03-19T18:09:57.540Z,100891.69
2023-03-19T18:16:40.136Z,100887.56
2023-03-19T18:23:24.131Z,100881.59
2023-03-19T18:30:07.265Z,100881.78
2023-03-19T18:36:49.516Z,100881.00
2023-03-19T18:43:31.750Z,100882.91
2023-03-19T18:50:16.605Z,100884.78
2023-03-19T18:57:01.285Z,100886.69
2023-03-19T19:03:45.270Z,100879.06
2023-03-19T19:10:34.540Z,100893.47
2023-03-19T19:17:21.463Z,100884.13
2023-03-19T19:24:03.887Z,100884.41
2023-03-19T19:30:46.930Z,100883.78
2023-03-19T19:37:29.264Z,100888.34
2023-03-19T19:44:22.274Z,100887.63
2023-03-19T19:51:04.625Z,100889.44
2023-03-19T19:57:46.943Z,100889.59
2023-03-19T20:04:30.584Z,100890.53
2023-03-19T20:11:22.888Z,100894.25
2023-03-19T20:18:06.692Z,100899.78
2023-03-19T20:24:51.363Z,100903.41
2023-03-19T20:31:34.256Z,100893.03
2023-03-19T20:38:17.202Z,100888.88
2023-03-19T20:44:59.890Z,100892.59
2023-03-19T20:51:42.052Z,100893.75
2023-03-19T20:58:31.019Z,100894.09
2023-03-19T21:05:15.800Z,100884.66
2023-03-19T21:11:58.088Z,100876.91
2023-03-19T21:18:40.343Z,100879.69
2023-03-19T21:25:29.016Z,100873.63
2023-03-19T21:32:12.033Z,100881.66
2023-03-19T21:38:54.316Z,100878.28
2023-03-19T21:45:36.851Z,100874.00
2023-03-19T21:52:21.981Z,100876.75
2023-03-19T21:59:14.540Z,100874.25
2023-03-19T22:05:57.066Z,100869.09
2023-03-19T22:12:42.745Z,100865.66
2023-03-19T22:19:26.071Z,100863.06
2023-03-19T22:26:42.053Z,100857.81
2023-03-19T22:33:26.920Z,100857.88
2023-03-19T22:40:12.200Z,100862.44
2023-03-19T22:46:56.228Z,100856.38
2023-03-19T22:53:38.364Z,100855.66
2023-03-19T23:00:23.844Z,100861.06
2023-03-19T23:07:06.649Z,100841.97
2023-03-19T23:13:48.834Z,100840.38
2023-03-19T23:20:35.081Z,100836.09
2023-03-19T23:27:24.836Z,100826.59
2023-03-19T23:34:06.958Z,100834.59
2023-03-19T23:40:51.778Z,100832.09
2023-03-19T23:47:34.000Z,100825.97
2023-03-19T23:54:39.550Z,100821.69
